sensor_id;sensor_type;location;lat;lon;timestamp;pressure;altitude;pressure_sealevel;temperature
33267;BMP180;19638;49.080;11.896;2023-07-31T00:01:09;96389.00;;;12.50
33267;BMP180;19638;49.080;11.896;2023-07-31T00:05:15;96375.00;;;12.40
33267;BMP180;19638;49.080;11.896;2023-07-31T00:09:20;96379.00;;;12.30
33267;BMP180;19638;49.080;11.896;2023-07-31T00:13:24;96381.00;;;12.30
33267;BMP180;19638;49.080;11.896;2023-07-31T00:17:27;96387.00;;;12.20
33267;BMP180;19638;49.080;11.896;2023-07-31T00:21:30;96378.00;;;12.20
33267;BMP180;19638;49.080;11.896;2023-07-31T00:25:35;96374.00;;;12.20
33267;BMP180;19638;49.080;11.896;2023-07-31T00:29:38;96382.00;;;12.10
33267;BMP180;19638;49.080;11.896;2023-07-31T00:33:41;96385.00;;;12.10
33267;BMP180;19638;49.080;11.896;2023-07-31T00:37:44;96383.00;;;12.00
33267;BMP180;19638;49.080;11.896;2023-07-31T00:42:04;96375.00;;;11.90
33267;BMP180;19638;49.080;11.896;2023-07-31T00:46:10;96376.00;;;11.90
33267;BMP180;19638;49.080;11.896;2023-07-31T00:50:14;96374.00;;;11.90
33267;BMP180;19638;49.080;11.896;2023-07-31T00:54:20;96363.00;;;11.90
33267;BMP180;19638;49.080;11.896;2023-07-31T00:58:25;96364.00;;;11.90
33267;BMP180;19638;49.080;11.896;2023-07-31T01:02:32;96361.00;;;11.90
33267;BMP180;19638;49.080;11.896;2023-07-31T01:06:38;96354.00;;;11.90
33267;BMP180;19638;49.080;11.896;2023-07-31T01:10:51;96358.00;;;11.90
33267;BMP180;19638;49.080;11.896;2023-07-31T01:15:07;96360.00;;;11.90
33267;BMP180;19638;49.080;11.896;2023-07-31T01:19:16;96351.00;;;11.90
33267;BMP180;19638;49.080;11.896;2023-07-31T01:23:37;96344.00;;;12.00
33267;BMP180;19638;49.080;11.896;2023-07-31T01:27:59;96348.00;;;12.10
33267;BMP180;19638;49.080;11.896;2023-07-31T01:32:04;96337.00;;;12.20
33267;BMP180;19638;49.080;11.896;2023-07-31T01:36:12;96346.00;;;12.30
33267;BMP180;19638;49.080;11.896;2023-07-31T01:40:15;96342.00;;;12.30
33267;BMP180;19638;49.080;11.896;2023-07-31T01:44:20;96341.00;;;12.30
33267;BMP180;19638;49.080;11.896;2023-07-31T01:48:24;96335.00;;;12.20
33267;BMP180;19638;49.080;11.896;2023-07-31T01:52:27;96331.00;;;12.10
33267;BMP180;19638;49.080;11.896;2023-07-31T01:56:36;96324.00;;;12.10
33267;BMP180;19638;49.080;11.896;2023-07-31T02:00:49;96326.00;;;12.00
33267;BMP180;19638;49.080;11.896;2023-07-31T02:04:56;96332.00;;;12.00
33267;BMP180;19638;49.080;11.896;2023-07-31T02:08:59;96335.00;;;11.90
33267;BMP180;19638;49.080;11.896;2023-07-31T02:13:07;96319.00;;;11.80
33267;BMP180;19638;49.080;11.896;2023-07-31T02:17:15;96321.00;;;11.80
33267;BMP180;19638;49.080;11.896;2023-07-31T02:21:18;96309.00;;;11.70
33267;BMP180;19638;49.080;11.896;2023-07-31T02:25:25;96304.00;;;11.70
33267;BMP180;19638;49.080;11.896;2023-07-31T02:29:28;96308.00;;;11.80
33267;BMP180;19638;49.080;11.896;2023-07-31T02:33:33;96308.00;;;11.80
33267;BMP180;19638;49.080;11.896;2023-07-31T02:37:37;96313.00;;;11.90
33267;BMP180;19638;49.080;11.896;2023-07-31T02:41:42;96295.00;;;12.00
33267;BMP180;19638;49.080;11.896;2023-07-31T02:45:45;96288.00;;;12.10
33267;BMP180;19638;49.080;11.896;2023-07-31T02:49:49;96277.00;;;12.10
33267;BMP180;19638;49.080;11.896;2023-07-31T02:53:52;96288.00;;;12.20
33267;BMP180;19638;49.080;11.896;2023-07-31T02:57:55;96289.00;;;12.20
33267;BMP180;19638;49.080;11.896;2023-07-31T03:01:59;96290.00;;;12.20
33267;BMP180;19638;49.080;11.896;2023-07-31T03:06:04;96293.00;;;12.20
33267;BMP180;19638;49.080;11.896;2023-07-31T03:10:10;96295.00;;;12.10
33267;BMP180;19638;49.080;11.896;2023-07-31T03:14:14;96297.00;;;12.00
33267;BMP180;19638;49.080;11.896;2023-07-31T03:18:22;96300.00;;;12.00
33267;BMP180;19638;49.080;11.896;2023-07-31T03:22:26;96302.00;;;11.90
33267;BMP180;19638;49.080;11.896;2023-07-31T03:26:31;96295.00;;;11.90
33267;BMP180;19638;49.080;11.896;2023-07-31T03:30:39;96296.00;;;11.80
33267;BMP180;19638;49.080;11.896;2023-07-31T03:34:42;96295.00;;;11.80
33267;BMP180;19638;49.080;11.896;2023-07-31T03:38:50;96292.00;;;11.80
33267;BMP180;19638;49.080;11.896;2023-07-31T03:42:54;96301.00;;;11.80
33267;BMP180;19638;49.080;11.896;2023-07-31T03:46:57;96304.00;;;11.80
33267;BMP180;19638;49.080;11.896;2023-07-31T03:51:01;96297.00;;;11.80
33267;BMP180;19638;49.080;11.896;2023-07-31T03:55:07;96292.00;;;11.80
33267;BMP180;19638;49.080;11.896;2023-07-31T03:59:14;96300.00;;;11.80
33267;BMP180;19638;49.080;11.896;2023-07-31T04:03:17;96293.00;;;11.80
33267;BMP180;19638;49.080;11.896;2023-07-31T04:07:20;96302.00;;;11.80
33267;BMP180;19638;49.080;11.896;2023-07-31T04:11:28;96300.00;;;11.80
33267;BMP180;19638;49.080;11.896;2023-07-31T04:15:33;96298.00;;;11.80
33267;BMP180;19638;49.080;11.896;2023-07-31T04:19:39;96294.00;;;11.90
33267;BMP180;19638;49.080;11.896;2023-07-31T04:23:45;96291.00;;;11.90
33267;BMP180;19638;49.080;11.896;2023-07-31T04:27:51;96283.00;;;12.00
33267;BMP180;19638;49.080;11.896;2023-07-31T04:31:58;96284.00;;;12.20
33267;BMP180;19638;49.080;11.896;2023-07-31T04:36:05;96280.00;;;12.30
33267;BMP180;19638;49.080;11.896;2023-07-31T04:40:11;96277.00;;;12.50
33267;BMP180;19638;49.080;11.896;2023-07-31T04:44:18;96275.00;;;12.70
33267;BMP180;19638;49.080;11.896;2023-07-31T04:48:26;96275.00;;;12.90
33267;BMP180;19638;49.080;11.896;2023-07-31T04:52:29;96276.00;;;13.20
33267;BMP180;19638;49.080;11.896;2023-07-31T04:56:32;96274.00;;;13.60
33267;BMP180;19638;49.080;11.896;2023-07-31T05:00:39;96268.00;;;14.10
33267;BMP180;19638;49.080;11.896;2023-07-31T05:04:48;96271.00;;;14.50
33267;BMP180;19638;49.080;11.896;2023-07-31T05:08:51;96273.00;;;14.80
33267;BMP180;19638;49.080;11.896;2023-07-31T05:12:55;96276.00;;;15.10
33267;BMP180;19638;49.080;11.896;2023-07-31T05:17:01;96271.00;;;15.40
33267;BMP180;19638;49.080;11.896;2023-07-31T05:21:04;96264.00;;;15.60
33267;BMP180;19638;49.080;11.896;2023-07-31T05:25:08;96257.00;;;15.60
33267;BMP180;19638;49.080;11.896;2023-07-31T05:29:11;96254.00;;;15.80
33267;BMP180;19638;49.080;11.896;2023-07-31T05:33:15;96248.00;;;16.10
33267;BMP180;19638;49.080;11.896;2023-07-31T05:37:22;96249.00;;;16.50
33267;BMP180;19638;49.080;11.896;2023-07-31T05:41:25;96248.00;;;16.90
33267;BMP180;19638;49.080;11.896;2023-07-31T05:45:31;96250.00;;;17.30
33267;BMP180;19638;49.080;11.896;2023-07-31T05:49:35;96251.00;;;17.50
33267;BMP180;19638;49.080;11.896;2023-07-31T05:53:40;96252.00;;;17.90
33267;BMP180;19638;49.080;11.896;2023-07-31T05:57:43;96248.00;;;18.20
33267;BMP180;19638;49.080;11.896;2023-07-31T06:01:47;96252.00;;;18.80
33267;BMP180;19638;49.080;11.896;2023-07-31T06:05:53;96256.00;;;19.40
33267;BMP180;19638;49.080;11.896;2023-07-31T06:09:59;96266.00;;;19.50
33267;BMP180;19638;49.080;11.896;2023-07-31T06:14:07;96265.00;;;19.70
33267;BMP180;19638;49.080;11.896;2023-07-31T06:18:12;96263.00;;;19.90
33267;BMP180;19638;49.080;11.896;2023-07-31T06:22:20;96255.00;;;20.20
33267;BMP180;19638;49.080;11.896;2023-07-31T06:26:23;96260.00;;;20.30
33267;BMP180;19638;49.080;11.896;2023-07-31T06:30:31;96262.00;;;20.50
33267;BMP180;19638;49.080;11.896;2023-07-31T06:34:34;96261.00;;;20.90
33267;BMP180;19638;49.080;11.896;2023-07-31T06:38:39;96272.00;;;21.50
33267;BMP180;19638;49.080;11.896;2023-07-31T06:42:47;96262.00;;;21.90
33267;BMP180;19638;49.080;11.896;2023-07-31T06:46:51;96265.00;;;22.10
33267;BMP180;19638;49.080;11.896;2023-07-31T06:50:54;96267.00;;;22.10
33267;BMP180;19638;49.080;11.896;2023-07-31T06:55:16;96252.00;;;22.30
33267;BMP180;19638;49.080;11.896;2023-07-31T06:59:20;96248.00;;;22.40
33267;BMP180;19638;49.080;11.896;2023-07-31T07:03:27;96253.00;;;22.30
33267;BMP180;19638;49.080;11.896;2023-07-31T07:07:32;96248.00;;;22.30
33267;BMP180;19638;49.080;11.896;2023-07-31T07:11:37;96258.00;;;22.40
33267;BMP180;19638;49.080;11.896;2023-07-31T07:15:41;96264.00;;;22.50
33267;BMP180;19638;49.080;11.896;2023-07-31T07:19:47;96267.00;;;22.50
33267;BMP180;19638;49.080;11.896;2023-07-31T07:23:52;96253.00;;;22.60
33267;BMP180;19638;49.080;11.896;2023-07-31T07:28:01;96259.00;;;22.80
33267;BMP180;19638;49.080;11.896;2023-07-31T07:32:05;96267.00;;;22.80
33267;BMP180;19638;49.080;11.896;2023-07-31T07:36:08;96259.00;;;22.90
33267;BMP180;19638;49.080;11.896;2023-07-31T07:40:12;96250.00;;;23.00
33267;BMP180;19638;49.080;11.896;2023-07-31T07:44:17;96255.00;;;23.10
33267;BMP180;19638;49.080;11.896;2023-07-31T07:48:23;96260.00;;;23.00
33267;BMP180;19638;49.080;11.896;2023-07-31T07:52:31;96261.00;;;23.60
33267;BMP180;19638;49.080;11.896;2023-07-31T07:56:34;96270.00;;;24.60
33267;BMP180;19638;49.080;11.896;2023-07-31T08:00:40;96272.00;;;24.80
33267;BMP180;19638;49.080;11.896;2023-07-31T08:04:44;96273.00;;;24.60
33267;BMP180;19638;49.080;11.896;2023-07-31T08:08:47;96266.00;;;24.10
33267;BMP180;19638;49.080;11.896;2023-07-31T08:12:53;96281.00;;;23.70
33267;BMP180;19638;49.080;11.896;2023-07-31T08:17:00;96282.00;;;23.60
33267;BMP180;19638;49.080;11.896;2023-07-31T08:21:05;96276.00;;;23.70
33267;BMP180;19638;49.080;11.896;2023-07-31T08:25:09;96279.00;;;23.60
33267;BMP180;19638;49.080;11.896;2023-07-31T08:29:13;96268.00;;;23.70
33267;BMP180;19638;49.080;11.896;2023-07-31T08:33:17;96268.00;;;24.20
33267;BMP180;19638;49.080;11.896;2023-07-31T08:37:23;96269.00;;;24.50
33267;BMP180;19638;49.080;11.896;2023-07-31T08:41:37;96262.00;;;24.70
33267;BMP180;19638;49.080;11.896;2023-07-31T08:45:43;96269.00;;;25.20
33267;BMP180;19638;49.080;11.896;2023-07-31T08:49:52;96273.00;;;25.50
33267;BMP180;19638;49.080;11.896;2023-07-31T08:53:57;96261.00;;;26.10
33267;BMP180;19638;49.080;11.896;2023-07-31T08:58:05;96260.00;;;26.60
33267;BMP180;19638;49.080;11.896;2023-07-31T09:02:09;96252.00;;;26.80
33267;BMP180;19638;49.080;11.896;2023-07-31T09:06:15;96240.00;;;26.90
33267;BMP180;19638;49.080;11.896;2023-07-31T09:10:20;96246.00;;;26.80
33267;BMP180;19638;49.080;11.896;2023-07-31T09:14:27;96238.00;;;26.60
33267;BMP180;19638;49.080;11.896;2023-07-31T09:18:52;96242.00;;;26.60
33267;BMP180;19638;49.080;11.896;2023-07-31T09:23:05;96237.00;;;26.30
33267;BMP180;19638;49.080;11.896;2023-07-31T09:27:09;96232.00;;;25.80
33267;BMP180;19638;49.080;11.896;2023-07-31T09:31:15;96236.00;;;25.40
33267;BMP180;19638;49.080;11.896;2023-07-31T09:35:20;96232.00;;;25.30
33267;BMP180;19638;49.080;11.896;2023-07-31T09:39:29;96214.00;;;25.90
33267;BMP180;19638;49.080;11.896;2023-07-31T09:43:33;96229.00;;;26.10
33267;BMP180;19638;49.080;11.896;2023-07-31T09:47:36;96221.00;;;26.20
33267;BMP180;19638;49.080;11.896;2023-07-31T09:51:40;96212.00;;;26.40
33267;BMP180;19638;49.080;11.896;2023-07-31T09:55:45;96212.00;;;27.20
33267;BMP180;19638;49.080;11.896;2023-07-31T09:59:50;96201.00;;;27.90
33267;BMP180;19638;49.080;11.896;2023-07-31T10:04:00;96196.00;;;28.70
33267;BMP180;19638;49.080;11.896;2023-07-31T10:08:07;96201.00;;;28.20
33267;BMP180;19638;49.080;11.896;2023-07-31T10:12:17;96198.00;;;28.10
33267;BMP180;19638;49.080;11.896;2023-07-31T10:16:22;96185.00;;;28.00
33267;BMP180;19638;49.080;11.896;2023-07-31T10:20:26;96181.00;;;27.60
33267;BMP180;19638;49.080;11.896;2023-07-31T10:24:30;96184.00;;;27.80
33267;BMP180;19638;49.080;11.896;2023-07-31T10:28:36;96179.00;;;27.90
33267;BMP180;19638;49.080;11.896;2023-07-31T10:32:43;96167.00;;;27.70
33267;BMP180;19638;49.080;11.896;2023-07-31T10:36:47;96159.00;;;27.70
33267;BMP180;19638;49.080;11.896;2023-07-31T10:40:51;96157.00;;;28.00
33267;BMP180;19638;49.080;11.896;2023-07-31T10:44:57;96155.00;;;27.50
33267;BMP180;19638;49.080;11.896;2023-07-31T10:49:09;96160.00;;;27.30
33267;BMP180;19638;49.080;11.896;2023-07-31T10:53:23;96154.00;;;27.40
33267;BMP180;19638;49.080;11.896;2023-07-31T10:57:38;96156.00;;;27.50
33267;BMP180;19638;49.080;11.896;2023-07-31T11:01:56;96145.00;;;28.20
33267;BMP180;19638;49.080;11.896;2023-07-31T11:06:00;96150.00;;;28.00
33267;BMP180;19638;49.080;11.896;2023-07-31T11:10:06;96139.00;;;27.80
33267;BMP180;19638;49.080;11.896;2023-07-31T11:14:12;96141.00;;;27.70
33267;BMP180;19638;49.080;11.896;2023-07-31T11:18:17;96129.00;;;27.30
33267;BMP180;19638;49.080;11.896;2023-07-31T11:22:23;96123.00;;;27.60
33267;BMP180;19638;49.080;11.896;2023-07-31T11:26:27;96118.00;;;27.80
33267;BMP180;19638;49.080;11.896;2023-07-31T11:30:31;96125.00;;;27.80
33267;BMP180;19638;49.080;11.896;2023-07-31T11:34:54;96123.00;;;27.60
33267;BMP180;19638;49.080;11.896;2023-07-31T11:39:05;96113.00;;;27.10
33267;BMP180;19638;49.080;11.896;2023-07-31T11:43:11;96099.00;;;27.00
33267;BMP180;19638;49.080;11.896;2023-07-31T11:47:19;96096.00;;;28.10
33267;BMP180;19638;49.080;11.896;2023-07-31T11:51:27;96091.00;;;29.30
33267;BMP180;19638;49.080;11.896;2023-07-31T11:55:32;96089.00;;;29.60
33267;BMP180;19638;49.080;11.896;2023-07-31T11:59:39;96090.00;;;29.60
33267;BMP180;19638;49.080;11.896;2023-07-31T12:03:46;96086.00;;;30.20
33267;BMP180;19638;49.080;11.896;2023-07-31T12:07:52;96078.00;;;30.60
33267;BMP180;19638;49.080;11.896;2023-07-31T12:11:56;96080.00;;;31.20
33267;BMP180;19638;49.080;11.896;2023-07-31T12:16:02;96061.00;;;31.10
33267;BMP180;19638;49.080;11.896;2023-07-31T12:20:12;96073.00;;;31.10
33267;BMP180;19638;49.080;11.896;2023-07-31T12:24:19;96057.00;;;30.90
33267;BMP180;19638;49.080;11.896;2023-07-31T12:28:24;96057.00;;;31.20
33267;BMP180;19638;49.080;11.896;2023-07-31T12:32:33;96052.00;;;30.90
33267;BMP180;19638;49.080;11.896;2023-07-31T12:36:36;96057.00;;;30.40
33267;BMP180;19638;49.080;11.896;2023-07-31T12:40:45;96048.00;;;29.90
33267;BMP180;19638;49.080;11.896;2023-07-31T12:44:48;96056.00;;;29.30
33267;BMP180;19638;49.080;11.896;2023-07-31T12:48:52;96056.00;;;28.90
33267;BMP180;19638;49.080;11.896;2023-07-31T12:53:17;96036.00;;;28.60
33267;BMP180;19638;49.080;11.896;2023-07-31T12:57:45;96043.00;;;28.80
33267;BMP180;19638;49.080;11.896;2023-07-31T13:01:55;96034.00;;;29.00
33267;BMP180;19638;49.080;11.896;2023-07-31T13:05:58;96027.00;;;28.90
33267;BMP180;19638;49.080;11.896;2023-07-31T13:10:07;96024.00;;;28.80
33267;BMP180;19638;49.080;11.896;2023-07-31T13:14:13;96017.00;;;28.70
33267;BMP180;19638;49.080;11.896;2023-07-31T13:18:18;95999.00;;;28.80
33267;BMP180;19638;49.080;11.896;2023-07-31T13:22:27;95991.00;;;28.80
33267;BMP180;19638;49.080;11.896;2023-07-31T13:26:34;95990.00;;;28.90
33267;BMP180;19638;49.080;11.896;2023-07-31T13:30:39;95982.00;;;29.00
33267;BMP180;19638;49.080;11.896;2023-07-31T13:34:42;95980.00;;;29.60
33267;BMP180;19638;49.080;11.896;2023-07-31T13:38:52;95976.00;;;29.80
33267;BMP180;19638;49.080;11.896;2023-07-31T13:42:57;95975.00;;;29.20
33267;BMP180;19638;49.080;11.896;2023-07-31T13:47:03;95962.00;;;28.40
33267;BMP180;19638;49.080;11.896;2023-07-31T13:51:06;95956.00;;;28.40
33267;BMP180;19638;49.080;11.896;2023-07-31T13:55:12;95961.00;;;28.60
33267;BMP180;19638;49.080;11.896;2023-07-31T13:59:16;95953.00;;;28.50
33267;BMP180;19638;49.080;11.896;2023-07-31T14:03:21;95945.00;;;29.00
33267;BMP180;19638;49.080;11.896;2023-07-31T14:07:25;95944.00;;;29.90
33267;BMP180;19638;49.080;11.896;2023-07-31T14:11:30;95939.00;;;29.90
33267;BMP180;19638;49.080;11.896;2023-07-31T14:15:33;95937.00;;;30.00
33267;BMP180;19638;49.080;11.896;2023-07-31T14:19:41;95936.00;;;30.60
33267;BMP180;19638;49.080;11.896;2023-07-31T14:23:47;95939.00;;;31.20
33267;BMP180;19638;49.080;11.896;2023-07-31T14:27:53;95936.00;;;30.50
33267;BMP180;19638;49.080;11.896;2023-07-31T14:31:56;95934.00;;;29.80
33267;BMP180;19638;49.080;11.896;2023-07-31T14:36:01;95931.00;;;29.80
33267;BMP180;19638;49.080;11.896;2023-07-31T14:40:05;95922.00;;;30.00
33267;BMP180;19638;49.080;11.896;2023-07-31T14:44:10;95934.00;;;30.20
33267;BMP180;19638;49.080;11.896;2023-07-31T14:48:13;95925.00;;;29.90
33267;BMP180;19638;49.080;11.896;2023-07-31T14:52:18;95916.00;;;29.70
33267;BMP180;19638;49.080;11.896;2023-07-31T14:56:24;95928.00;;;30.20
33267;BMP180;19638;49.080;11.896;2023-07-31T15:00:30;95928.00;;;30.50
33267;BMP180;19638;49.080;11.896;2023-07-31T15:04:35;95923.00;;;29.90
33267;BMP180;19638;49.080;11.896;2023-07-31T15:08:40;95910.00;;;29.80
33267;BMP180;19638;49.080;11.896;2023-07-31T15:12:44;95910.00;;;29.80
33267;BMP180;19638;49.080;11.896;2023-07-31T15:16:47;95912.00;;;29.40
33267;BMP180;19638;49.080;11.896;2023-07-31T15:20:50;95902.00;;;29.20
33267;BMP180;19638;49.080;11.896;2023-07-31T15:24:56;95900.00;;;29.20
33267;BMP180;19638;49.080;11.896;2023-07-31T15:29:04;95894.00;;;28.90
33267;BMP180;19638;49.080;11.896;2023-07-31T15:33:12;95888.00;;;28.40
33267;BMP180;19638;49.080;11.896;2023-07-31T15:37:15;95896.00;;;28.30
33267;BMP180;19638;49.080;11.896;2023-07-31T15:41:21;95894.00;;;28.30
33267;BMP180;19638;49.080;11.896;2023-07-31T15:45:27;95894.00;;;28.20
33267;BMP180;19638;49.080;11.896;2023-07-31T15:49:33;95890.00;;;28.10
33267;BMP180;19638;49.080;11.896;2023-07-31T15:53:37;95882.00;;;27.60
33267;BMP180;19638;49.080;11.896;2023-07-31T15:57:41;95874.00;;;27.40
33267;BMP180;19638;49.080;11.896;2023-07-31T16:01:48;95863.00;;;27.20
33267;BMP180;19638;49.080;11.896;2023-07-31T16:05:59;95869.00;;;26.80
33267;BMP180;19638;49.080;11.896;2023-07-31T16:10:04;95869.00;;;26.50
33267;BMP180;19638;49.080;11.896;2023-07-31T16:14:09;95864.00;;;26.30
33267;BMP180;19638;49.080;11.896;2023-07-31T16:18:20;95866.00;;;26.10
33267;BMP180;19638;49.080;11.896;2023-07-31T16:22:23;95866.00;;;26.00
33267;BMP180;19638;49.080;11.896;2023-07-31T16:26:26;95860.00;;;26.00
33267;BMP180;19638;49.080;11.896;2023-07-31T16:30:31;95851.00;;;26.00
33267;BMP180;19638;49.080;11.896;2023-07-31T16:34:36;95851.00;;;25.90
33267;BMP180;19638;49.080;11.896;2023-07-31T16:38:39;95857.00;;;25.90
33267;BMP180;19638;49.080;11.896;2023-07-31T16:42:43;95849.00;;;25.90
33267;BMP180;19638;49.080;11.896;2023-07-31T16:46:47;95844.00;;;25.80
33267;BMP180;19638;49.080;11.896;2023-07-31T16:50:51;95848.00;;;25.80
33267;BMP180;19638;49.080;11.896;2023-07-31T16:54:54;95844.00;;;25.90
33267;BMP180;19638;49.080;11.896;2023-07-31T16:58:59;95846.00;;;26.00
33267;BMP180;19638;49.080;11.896;2023-07-31T17:03:05;95841.00;;;26.10
33267;BMP180;19638;49.080;11.896;2023-07-31T17:07:09;95839.00;;;26.10
33267;BMP180;19638;49.080;11.896;2023-07-31T17:11:13;95835.00;;;25.80
33267;BMP180;19638;49.080;11.896;2023-07-31T17:15:21;95836.00;;;25.70
33267;BMP180;19638;49.080;11.896;2023-07-31T17:19:30;95822.00;;;25.40
33267;BMP180;19638;49.080;11.896;2023-07-31T17:23:34;95829.00;;;25.30
33267;BMP180;19638;49.080;11.896;2023-07-31T17:27:39;95826.00;;;25.30
33267;BMP180;19638;49.080;11.896;2023-07-31T17:31:43;95816.00;;;25.20
33267;BMP180;19638;49.080;11.896;2023-07-31T17:35:52;95812.00;;;25.20
33267;BMP180;19638;49.080;11.896;2023-07-31T17:39:56;95818.00;;;25.30
33267;BMP180;19638;49.080;11.896;2023-07-31T17:43:59;95803.00;;;25.50
33267;BMP180;19638;49.080;11.896;2023-07-31T17:48:05;95810.00;;;25.90
33267;BMP180;19638;49.080;11.896;2023-07-31T17:52:12;95806.00;;;26.10
33267;BMP180;19638;49.080;11.896;2023-07-31T17:56:19;95807.00;;;26.10
33267;BMP180;19638;49.080;11.896;2023-07-31T18:00:22;95815.00;;;25.70
33267;BMP180;19638;49.080;11.896;2023-07-31T18:04:27;95814.00;;;25.30
33267;BMP180;19638;49.080;11.896;2023-07-31T18:08:31;95817.00;;;24.80
33267;BMP180;19638;49.080;11.896;2023-07-31T18:12:34;95814.00;;;24.40
33267;BMP180;19638;49.080;11.896;2023-07-31T18:16:38;95810.00;;;24.10
33267;BMP180;19638;49.080;11.896;2023-07-31T18:20:42;95803.00;;;23.90
33267;BMP180;19638;49.080;11.896;2023-07-31T18:24:48;95818.00;;;23.60
33267;BMP180;19638;49.080;11.896;2023-07-31T18:28:53;95814.00;;;23.40
33267;BMP180;19638;49.080;11.896;2023-07-31T18:32:59;95795.00;;;23.10
33267;BMP180;19638;49.080;11.896;2023-07-31T18:37:03;95790.00;;;23.00
33267;BMP180;19638;49.080;11.896;2023-07-31T18:41:08;95795.00;;;22.80
33267;BMP180;19638;49.080;11.896;2023-07-31T18:45:14;95794.00;;;22.70
33267;BMP180;19638;49.080;11.896;2023-07-31T18:49:18;95803.00;;;22.60
33267;BMP180;19638;49.080;11.896;2023-07-31T18:53:24;95807.00;;;22.50
33267;BMP180;19638;49.080;11.896;2023-07-31T18:57:28;95790.00;;;22.40
33267;BMP180;19638;49.080;11.896;2023-07-31T19:01:33;95787.00;;;22.40
33267;BMP180;19638;49.080;11.896;2023-07-31T19:05:39;95780.00;;;22.30
33267;BMP180;19638;49.080;11.896;2023-07-31T19:09:42;95777.00;;;22.30
33267;BMP180;19638;49.080;11.896;2023-07-31T19:13:55;95782.00;;;22.30
33267;BMP180;19638;49.080;11.896;2023-07-31T19:17:58;95799.00;;;22.20
33267;BMP180;19638;49.080;11.896;2023-07-31T19:22:04;95789.00;;;22.10
33267;BMP180;19638;49.080;11.896;2023-07-31T19:26:07;95793.00;;;22.00
33267;BMP180;19638;49.080;11.896;2023-07-31T19:30:15;95782.00;;;21.90
33267;BMP180;19638;49.080;11.896;2023-07-31T19:34:24;95788.00;;;21.80
33267;BMP180;19638;49.080;11.896;2023-07-31T19:38:28;95794.00;;;21.70
33267;BMP180;19638;49.080;11.896;2023-07-31T19:42:33;95796.00;;;21.60
33267;BMP180;19638;49.080;11.896;2023-07-31T19:46:38;95788.00;;;21.60
33267;BMP180;19638;49.080;11.896;2023-07-31T19:50:42;95771.00;;;21.60
33267;BMP180;19638;49.080;11.896;2023-07-31T19:54:45;95782.00;;;21.60
33267;BMP180;19638;49.080;11.896;2023-07-31T19:58:54;95780.00;;;21.60
33267;BMP180;19638;49.080;11.896;2023-07-31T20:03:01;95772.00;;;21.50
33267;BMP180;19638;49.080;11.896;2023-07-31T20:07:09;95770.00;;;21.50
33267;BMP180;19638;49.080;11.896;2023-07-31T20:11:12;95756.00;;;21.50
33267;BMP180;19638;49.080;11.896;2023-07-31T20:15:21;95760.00;;;21.40
33267;BMP180;19638;49.080;11.896;2023-07-31T20:19:28;95758.00;;;21.40
33267;BMP180;19638;49.080;11.896;2023-07-31T20:23:33;95745.00;;;21.40
33267;BMP180;19638;49.080;11.896;2023-07-31T20:27:44;95738.00;;;21.40
33267;BMP180;19638;49.080;11.896;2023-07-31T20:31:47;95731.00;;;21.40
33267;BMP180;19638;49.080;11.896;2023-07-31T20:35:56;95731.00;;;21.30
33267;BMP180;19638;49.080;11.896;2023-07-31T20:39:59;95737.00;;;21.20
33267;BMP180;19638;49.080;11.896;2023-07-31T20:44:05;95726.00;;;21.10
33267;BMP180;19638;49.080;11.896;2023-07-31T20:48:08;95730.00;;;21.10
33267;BMP180;19638;49.080;11.896;2023-07-31T20:52:16;95716.00;;;21.00
33267;BMP180;19638;49.080;11.896;2023-07-31T20:56:20;95708.00;;;20.90
33267;BMP180;19638;49.080;11.896;2023-07-31T21:00:24;95710.00;;;20.90
33267;BMP180;19638;49.080;11.896;2023-07-31T21:04:28;95715.00;;;20.80
33267;BMP180;19638;49.080;11.896;2023-07-31T21:08:32;95705.00;;;20.50
33267;BMP180;19638;49.080;11.896;2023-07-31T21:12:35;95704.00;;;20.20
33267;BMP180;19638;49.080;11.896;2023-07-31T21:16:41;95700.00;;;20.00
33267;BMP180;19638;49.080;11.896;2023-07-31T21:20:46;95698.00;;;19.90
33267;BMP180;19638;49.080;11.896;2023-07-31T21:24:54;95689.00;;;19.80
33267;BMP180;19638;49.080;11.896;2023-07-31T21:28:57;95691.00;;;19.70
33267;BMP180;19638;49.080;11.896;2023-07-31T21:33:03;95683.00;;;19.70
33267;BMP180;19638;49.080;11.896;2023-07-31T21:37:06;95687.00;;;19.60
33267;BMP180;19638;49.080;11.896;2023-07-31T21:41:13;95685.00;;;19.30
33267;BMP180;19638;49.080;11.896;2023-07-31T21:45:18;95681.00;;;19.10
33267;BMP180;19638;49.080;11.896;2023-07-31T21:49:23;95682.00;;;19.00
33267;BMP180;19638;49.080;11.896;2023-07-31T21:53:26;95678.00;;;19.00
33267;BMP180;19638;49.080;11.896;2023-07-31T21:57:35;95671.00;;;18.90
33267;BMP180;19638;49.080;11.896;2023-07-31T22:01:39;95668.00;;;18.80
33267;BMP180;19638;49.080;11.896;2023-07-31T22:05:43;95675.00;;;18.80
33267;BMP180;19638;49.080;11.896;2023-07-31T22:09:47;95658.00;;;18.70
33267;BMP180;19638;49.080;11.896;2023-07-31T22:13:53;95649.00;;;18.60
33267;BMP180;19638;49.080;11.896;2023-07-31T22:17:58;95638.00;;;18.50
33267;BMP180;19638;49.080;11.896;2023-07-31T22:22:06;95630.00;;;18.40
33267;BMP180;19638;49.080;11.896;2023-07-31T22:26:11;95633.00;;;18.40
33267;BMP180;19638;49.080;11.896;2023-07-31T22:30:16;95629.00;;;18.30
33267;BMP180;19638;49.080;11.896;2023-07-31T22:34:20;95632.00;;;18.20
33267;BMP180;19638;49.080;11.896;2023-07-31T22:38:24;95632.00;;;18.10
33267;BMP180;19638;49.080;11.896;2023-07-31T22:42:28;95620.00;;;18.00
33267;BMP180;19638;49.080;11.896;2023-07-31T22:46:36;95616.00;;;17.90
33267;BMP180;19638;49.080;11.896;2023-07-31T22:50:40;95606.00;;;17.80
33267;BMP180;19638;49.080;11.896;2023-07-31T22:54:43;95599.00;;;17.70
33267;BMP180;19638;49.080;11.896;2023-07-31T22:58:47;95602.00;;;17.70
33267;BMP180;19638;49.080;11.896;2023-07-31T23:02:52;95592.00;;;17.70
33267;BMP180;19638;49.080;11.896;2023-07-31T23:06:56;95589.00;;;17.70
33267;BMP180;19638;49.080;11.896;2023-07-31T23:11:01;95576.00;;;17.70
33267;BMP180;19638;49.080;11.896;2023-07-31T23:15:05;95579.00;;;17.70